VCV380 MPTO-MROC
Flight info
| Callsign | VCV380 |
|---|---|
| Flight time | N/A |
| Altitude | 32000 |
| Route | SIMAN3A SIMAN DCT PUDOS DCT ISEBA CUARE3I |
| Aircraft | A346/H-SDE2E3FGHIJ3J4J5M1RWXY/LB1D1 |
Departure
| Time | 2026-05-08 04:53 |
|---|---|
| Airport | Tocumen International Airport (MPTO) |
Arrival
| Time | N/A |
|---|---|
| Airport | Juan Santamaría International Airport (MROC) |
| Time | Latitude | Longitude | Altitude | Speed | Heading |
|---|---|---|---|---|---|
| 2026-05-08 04:24 | 9.06209 | -79.38884 | 38 ft | 0 kts | 294° |
| 2026-05-08 04:44 | 9.06199 | -79.38866 | 35 ft | 4 kts | 308° |
| 2026-05-08 04:44 | 9.06182 | -79.38850 | 36 ft | 4 kts | 334° |
| 2026-05-08 04:45 | 9.06160 | -79.38845 | 35 ft | 4 kts | 4° |
| 2026-05-08 04:45 | 9.06138 | -79.38851 | 35 ft | 4 kts | 29° |
| 2026-05-08 04:45 | 9.06126 | -79.38859 | 36 ft | 0 kts | 39° |
| 2026-05-08 04:47 | 9.06130 | -79.38856 | 36 ft | 2 kts | 39° |
| 2026-05-08 04:48 | 9.06160 | -79.38832 | 36 ft | 9 kts | 39° |
| 2026-05-08 04:48 | 9.06231 | -79.38799 | 38 ft | 13 kts | 9° |
| 2026-05-08 04:48 | 9.06332 | -79.38772 | 38 ft | 17 kts | 47° |
| 2026-05-08 04:48 | 9.06313 | -79.38659 | 38 ft | 20 kts | 139° |
| 2026-05-08 04:49 | 9.06167 | -79.38644 | 38 ft | 24 kts | 198° |
| 2026-05-08 04:49 | 9.06007 | -79.38727 | 39 ft | 28 kts | 209° |
| 2026-05-08 04:49 | 9.05827 | -79.38830 | 38 ft | 32 kts | 209° |
| 2026-05-08 04:49 | 9.05627 | -79.38947 | 38 ft | 35 kts | 210° |
| 2026-05-08 04:50 | 9.05413 | -79.39074 | 38 ft | 37 kts | 210° |
| 2026-05-08 04:50 | 9.05177 | -79.39196 | 39 ft | 39 kts | 208° |
| 2026-05-08 04:50 | 9.05014 | -79.39295 | 39 ft | 17 kts | 210° |
| 2026-05-08 04:50 | 9.04913 | -79.39354 | 39 ft | 18 kts | 210° |
| 2026-05-08 04:51 | 9.04808 | -79.39331 | 39 ft | 18 kts | 128° |
| 2026-05-08 04:51 | 9.04786 | -79.39260 | 40 ft | 7 kts | 30° |
| 2026-05-08 04:51 | 9.04800 | -79.39252 | 40 ft | 1 kts | 32° |
| 2026-05-08 04:51 | 9.04817 | -79.39241 | 40 ft | 5 kts | 32° |
| 2026-05-08 04:52 | 9.04855 | -79.39217 | 40 ft | 8 kts | 31° |
| 2026-05-08 04:52 | 9.04980 | -79.39140 | 40 ft | 52 kts | 30° |
| 2026-05-08 04:52 | 9.05515 | -79.38835 | 39 ft | 121 kts | 29° |
| 2026-05-08 04:52 | 9.06448 | -79.38306 | 43 ft | 184 kts | 24° |
| 2026-05-08 04:53 | 9.07643 | -79.37674 | 655 ft | 199 kts | 30° |
| 2026-05-08 04:53 | 9.08841 | -79.36948 | 1647 ft | 197 kts | 30° |
| 2026-05-08 04:53 | 9.10022 | -79.36254 | 2669 ft | 201 kts | 28° |
| 2026-05-08 04:53 | 9.11298 | -79.35528 | 3347 ft | 220 kts | 28° |
| 2026-05-08 04:54 | 9.12676 | -79.34747 | 3948 ft | 236 kts | 29° |
| 2026-05-08 04:54 | 9.14160 | -79.33901 | 4551 ft | 251 kts | 29° |
| 2026-05-08 04:54 | 9.15732 | -79.33006 | 5141 ft | 266 kts | 29° |
| 2026-05-08 04:54 | 9.16815 | -79.32391 | 5663 ft | 270 kts | 29° |
| 2026-05-08 04:55 | 9.19025 | -79.31137 | 6830 ft | 274 kts | 29° |
| 2026-05-08 04:55 | 9.20715 | -79.30226 | 7683 ft | 277 kts | 22° |
| 2026-05-08 04:55 | 9.22626 | -79.29939 | 8488 ft | 284 kts | 355° |
| 2026-05-08 04:55 | 9.24491 | -79.30556 | 9301 ft | 292 kts | 330° |
| 2026-05-08 04:56 | 9.25966 | -79.31999 | 10054 ft | 302 kts | 303° |
| 2026-05-08 04:56 | 9.26668 | -79.34020 | 10725 ft | 312 kts | 277° |
| 2026-05-08 04:56 | 9.26731 | -79.35516 | 11223 ft | 315 kts | 272° |
| 2026-05-08 04:56 | 9.26753 | -79.38488 | 12192 ft | 322 kts | 271° |
| 2026-05-08 04:57 | 9.26768 | -79.40031 | 12673 ft | 326 kts | 272° |
| 2026-05-08 04:57 | 9.26803 | -79.42321 | 13396 ft | 331 kts | 272° |
| 2026-05-08 04:57 | 9.26853 | -79.44669 | 14100 ft | 336 kts | 272° |
| 2026-05-08 04:57 | 9.26913 | -79.47050 | 14777 ft | 340 kts | 272° |
| 2026-05-08 04:58 | 9.26978 | -79.49455 | 15504 ft | 342 kts | 272° |
| 2026-05-08 04:58 | 9.27043 | -79.51878 | 16249 ft | 345 kts | 272° |
| 2026-05-08 04:58 | 9.27211 | -79.54310 | 16978 ft | 347 kts | 278° |
| 2026-05-08 04:58 | 9.27642 | -79.56734 | 17647 ft | 352 kts | 284° |
| 2026-05-08 04:59 | 9.28296 | -79.59166 | 17999 ft | 367 kts | 287° |
| 2026-05-08 04:59 | 9.29036 | -79.61692 | 18279 ft | 383 kts | 287° |
| 2026-05-08 04:59 | 9.29815 | -79.64331 | 18526 ft | 398 kts | 287° |
| 2026-05-08 04:59 | 9.30612 | -79.67055 | 18775 ft | 413 kts | 287° |
| 2026-05-08 05:00 | 9.31431 | -79.69877 | 18999 ft | 427 kts | 287° |
| 2026-05-08 05:00 | 9.32278 | -79.72812 | 19217 ft | 441 kts | 287° |
| 2026-05-08 05:00 | 9.33149 | -79.75837 | 19520 ft | 451 kts | 287° |
| 2026-05-08 05:00 | 9.34034 | -79.78912 | 20011 ft | 456 kts | 288° |
| 2026-05-08 05:01 | 9.34922 | -79.82008 | 20541 ft | 459 kts | 287° |
| 2026-05-08 05:01 | 9.35547 | -79.85208 | 21019 ft | 466 kts | 277° |
| 2026-05-08 05:01 | 9.35611 | -79.88514 | 21506 ft | 472 kts | 267° |
| 2026-05-08 05:01 | 9.35112 | -79.91816 | 21995 ft | 476 kts | 258° |
| 2026-05-08 05:02 | 9.34357 | -79.95105 | 22470 ft | 481 kts | 257° |
| 2026-05-08 05:02 | 9.33569 | -79.98340 | 22905 ft | 485 kts | 257° |
| 2026-05-08 05:02 | 9.32760 | -80.01646 | 23353 ft | 490 kts | 257° |
| 2026-05-08 05:02 | 9.31946 | -80.05018 | 23750 ft | 494 kts | 257° |
| 2026-05-08 05:03 | 9.31137 | -80.08415 | 24166 ft | 496 kts | 257° |
| 2026-05-08 05:03 | 9.30332 | -80.11819 | 24604 ft | 498 kts | 257° |
| 2026-05-08 05:03 | 9.29528 | -80.15228 | 25037 ft | 500 kts | 257° |
| 2026-05-08 05:03 | 9.28720 | -80.18667 | 25462 ft | 502 kts | 257° |
| 2026-05-08 05:04 | 9.27909 | -80.22120 | 25881 ft | 504 kts | 257° |
| 2026-05-08 05:04 | 9.27095 | -80.25587 | 26308 ft | 507 kts | 257° |
| 2026-05-08 05:04 | 9.26281 | -80.29046 | 26713 ft | 509 kts | 257° |
| 2026-05-08 05:04 | 9.25457 | -80.32548 | 27122 ft | 511 kts | 257° |
| 2026-05-08 05:05 | 9.24631 | -80.36061 | 27538 ft | 514 kts | 256° |
| 2026-05-08 05:05 | 9.23800 | -80.39589 | 27947 ft | 516 kts | 256° |
| 2026-05-08 05:05 | 9.22988 | -80.43037 | 28323 ft | 518 kts | 256° |
| 2026-05-08 05:05 | 9.22154 | -80.46580 | 28714 ft | 521 kts | 256° |
| 2026-05-08 05:06 | 9.21310 | -80.50158 | 29100 ft | 523 kts | 256° |
| 2026-05-08 05:06 | 9.20466 | -80.53739 | 29537 ft | 524 kts | 256° |
| 2026-05-08 05:06 | 9.19629 | -80.57288 | 30116 ft | 522 kts | 256° |
| 2026-05-08 05:06 | 9.18799 | -80.60806 | 30587 ft | 520 kts | 256° |
| 2026-05-08 05:07 | 9.17959 | -80.64366 | 31009 ft | 520 kts | 256° |
| 2026-05-08 05:07 | 9.17116 | -80.67935 | 31406 ft | 521 kts | 256° |
| 2026-05-08 05:07 | 9.16291 | -80.71424 | 31770 ft | 521 kts | 256° |
| 2026-05-08 05:07 | 9.15447 | -80.74996 | 31961 ft | 522 kts | 256° |
| 2026-05-08 05:08 | 9.13757 | -80.82136 | 31963 ft | 523 kts | 256° |
| 2026-05-08 05:08 | 9.12067 | -80.89269 | 31964 ft | 523 kts | 256° |
| 2026-05-08 05:09 | 9.10520 | -80.96380 | 31970 ft | 523 kts | 260° |
| 2026-05-08 05:09 | 9.09860 | -81.03598 | 31971 ft | 523 kts | 269° |
| 2026-05-08 05:10 | 9.10840 | -81.14469 | 31972 ft | 523 kts | 282° |
| 2026-05-08 05:11 | 9.12577 | -81.21619 | 31975 ft | 523 kts | 285° |
| 2026-05-08 05:11 | 9.14371 | -81.28560 | 31966 ft | 523 kts | 285° |
| 2026-05-08 05:12 | 9.16201 | -81.35706 | 31970 ft | 523 kts | 285° |
| 2026-05-08 05:12 | 9.18011 | -81.42835 | 31969 ft | 523 kts | 285° |
| 2026-05-08 05:13 | 9.19812 | -81.49952 | 31969 ft | 523 kts | 285° |
| 2026-05-08 05:13 | 9.21617 | -81.57101 | 31970 ft | 523 kts | 285° |
| 2026-05-08 05:14 | 9.23422 | -81.64257 | 31971 ft | 523 kts | 284° |
| 2026-05-08 05:14 | 9.25222 | -81.71396 | 31972 ft | 523 kts | 284° |
| 2026-05-08 05:15 | 9.27023 | -81.78548 | 31973 ft | 524 kts | 284° |
| 2026-05-08 05:15 | 9.28809 | -81.85647 | 31973 ft | 524 kts | 284° |
| 2026-05-08 05:16 | 9.30603 | -81.92783 | 31973 ft | 524 kts | 284° |
| 2026-05-08 05:16 | 9.32400 | -81.99941 | 31975 ft | 524 kts | 284° |
| 2026-05-08 05:17 | 9.34193 | -82.07086 | 31974 ft | 524 kts | 284° |
| 2026-05-08 05:17 | 9.35989 | -82.14248 | 31978 ft | 524 kts | 284° |
| 2026-05-08 05:18 | 9.37784 | -82.21416 | 31976 ft | 524 kts | 284° |
| 2026-05-08 05:18 | 9.39575 | -82.28572 | 31978 ft | 523 kts | 284° |
| 2026-05-08 05:19 | 9.41367 | -82.35738 | 31979 ft | 523 kts | 284° |
| 2026-05-08 05:19 | 9.43156 | -82.42895 | 31984 ft | 524 kts | 284° |
| 2026-05-08 05:20 | 9.44925 | -82.49984 | 31987 ft | 524 kts | 284° |
| 2026-05-08 05:20 | 9.46736 | -82.57248 | 31987 ft | 524 kts | 284° |
| 2026-05-08 05:21 | 9.48521 | -82.64415 | 31983 ft | 524 kts | 284° |
| 2026-05-08 05:21 | 9.50295 | -82.71544 | 31993 ft | 524 kts | 284° |
| 2026-05-08 05:22 | 9.52077 | -82.78712 | 31997 ft | 524 kts | 284° |
| 2026-05-08 05:22 | 9.53860 | -82.85890 | 31803 ft | 525 kts | 284° |
| 2026-05-08 05:22 | 9.54755 | -82.89465 | 31281 ft | 522 kts | 285° |
| 2026-05-08 05:23 | 9.55665 | -82.93030 | 30506 ft | 522 kts | 285° |
| 2026-05-08 05:23 | 9.56583 | -82.96611 | 29458 ft | 527 kts | 285° |
| 2026-05-08 05:23 | 9.57509 | -83.00219 | 28489 ft | 529 kts | 285° |
| 2026-05-08 05:23 | 9.58431 | -83.03819 | 27824 ft | 525 kts | 285° |
| 2026-05-08 05:24 | 9.59345 | -83.07395 | 27144 ft | 521 kts | 285° |
| 2026-05-08 05:24 | 9.60263 | -83.10934 | 26557 ft | 515 kts | 287° |
| 2026-05-08 05:24 | 9.61313 | -83.14382 | 26025 ft | 508 kts | 290° |
| 2026-05-08 05:24 | 9.62479 | -83.17740 | 25519 ft | 502 kts | 291° |
| 2026-05-08 05:25 | 9.63662 | -83.21066 | 24948 ft | 498 kts | 291° |
| 2026-05-08 05:25 | 9.64839 | -83.24356 | 24391 ft | 494 kts | 291° |
| 2026-05-08 05:25 | 9.66007 | -83.27621 | 23868 ft | 490 kts | 292° |
| 2026-05-08 05:25 | 9.67161 | -83.30856 | 23347 ft | 485 kts | 291° |
| 2026-05-08 05:26 | 9.68307 | -83.34070 | 22804 ft | 480 kts | 291° |
| 2026-05-08 05:26 | 9.69432 | -83.37234 | 22314 ft | 474 kts | 291° |
| 2026-05-08 05:26 | 9.70543 | -83.40364 | 21858 ft | 468 kts | 291° |
| 2026-05-08 05:26 | 9.71621 | -83.43405 | 21418 ft | 462 kts | 291° |
| 2026-05-08 05:27 | 9.72704 | -83.46460 | 20973 ft | 456 kts | 291° |
| 2026-05-08 05:27 | 9.73767 | -83.49475 | 20537 ft | 451 kts | 290° |
| 2026-05-08 05:27 | 9.74550 | -83.52546 | 20088 ft | 448 kts | 281° |
| 2026-05-08 05:27 | 9.74879 | -83.55676 | 19638 ft | 444 kts | 272° |
| 2026-05-08 05:28 | 9.74791 | -83.58793 | 19192 ft | 440 kts | 266° |
| 2026-05-08 05:28 | 9.74553 | -83.61872 | 18787 ft | 434 kts | 265° |
| 2026-05-08 05:28 | 9.74303 | -83.64876 | 18650 ft | 420 kts | 265° |
| 2026-05-08 05:28 | 9.74073 | -83.67792 | 18471 ft | 409 kts | 265° |
| 2026-05-08 05:29 | 9.73863 | -83.70636 | 18271 ft | 398 kts | 265° |
| 2026-05-08 05:29 | 9.73665 | -83.73386 | 18166 ft | 385 kts | 265° |
| 2026-05-08 05:29 | 9.73473 | -83.76049 | 18053 ft | 372 kts | 265° |
| 2026-05-08 05:29 | 9.73288 | -83.78623 | 17947 ft | 359 kts | 265° |
| 2026-05-08 05:30 | 9.73110 | -83.81111 | 17836 ft | 348 kts | 265° |
| 2026-05-08 05:30 | 9.72938 | -83.83521 | 17737 ft | 339 kts | 265° |
| 2026-05-08 05:30 | 9.72765 | -83.85894 | 17583 ft | 336 kts | 265° |
| 2026-05-08 05:30 | 9.72585 | -83.88257 | 17222 ft | 335 kts | 265° |
| 2026-05-08 05:31 | 9.72402 | -83.90616 | 16870 ft | 334 kts | 265° |
| 2026-05-08 05:31 | 9.72219 | -83.92968 | 16522 ft | 333 kts | 265° |
| 2026-05-08 05:31 | 9.72041 | -83.95274 | 16205 ft | 332 kts | 265° |
| 2026-05-08 05:31 | 9.71861 | -83.97608 | 15879 ft | 331 kts | 265° |
| 2026-05-08 05:32 | 9.71680 | -83.99934 | 15553 ft | 331 kts | 265° |
| 2026-05-08 05:32 | 9.71500 | -84.02254 | 15229 ft | 330 kts | 265° |
| 2026-05-08 05:32 | 9.71321 | -84.04574 | 14907 ft | 329 kts | 265° |
| 2026-05-08 05:32 | 9.71140 | -84.06889 | 14547 ft | 329 kts | 265° |
| 2026-05-08 05:33 | 9.70962 | -84.09200 | 14225 ft | 327 kts | 265° |
| 2026-05-08 05:33 | 9.70785 | -84.11497 | 13914 ft | 327 kts | 265° |
| 2026-05-08 05:33 | 9.70606 | -84.13797 | 13549 ft | 326 kts | 265° |
| 2026-05-08 05:33 | 9.70428 | -84.16080 | 13218 ft | 322 kts | 265° |
| 2026-05-08 05:34 | 9.70252 | -84.18342 | 12920 ft | 321 kts | 265° |
| 2026-05-08 05:34 | 9.70080 | -84.20594 | 12594 ft | 319 kts | 265° |
| 2026-05-08 05:34 | 9.70086 | -84.22837 | 12221 ft | 317 kts | 279° |
| 2026-05-08 05:34 | 9.70651 | -84.24979 | 11910 ft | 312 kts | 293° |
| 2026-05-08 05:35 | 9.71515 | -84.26984 | 11622 ft | 309 kts | 296° |
| 2026-05-08 05:35 | 9.72414 | -84.28956 | 11319 ft | 306 kts | 296° |
| 2026-05-08 05:35 | 9.73303 | -84.30912 | 11010 ft | 304 kts | 295° |
| 2026-05-08 05:35 | 9.74178 | -84.32865 | 10712 ft | 303 kts | 295° |
| 2026-05-08 05:36 | 9.75040 | -84.34812 | 10387 ft | 301 kts | 295° |
| 2026-05-08 05:36 | 9.75892 | -84.36748 | 10068 ft | 299 kts | 294° |
| 2026-05-08 05:36 | 9.76728 | -84.38653 | 9959 ft | 289 kts | 294° |
| 2026-05-08 05:36 | 9.77511 | -84.40442 | 9950 ft | 274 kts | 294° |
| 2026-05-08 05:37 | 9.78263 | -84.42159 | 9929 ft | 259 kts | 294° |
| 2026-05-08 05:37 | 9.79027 | -84.43797 | 9951 ft | 256 kts | 306° |
| 2026-05-08 05:37 | 9.80348 | -84.44934 | 9928 ft | 249 kts | 341° |
| 2026-05-08 05:37 | 9.81989 | -84.45408 | 9683 ft | 245 kts | 348° |
| 2026-05-08 05:38 | 9.83660 | -84.45812 | 9271 ft | 248 kts | 348° |
| 2026-05-08 05:38 | 9.85336 | -84.46227 | 8957 ft | 247 kts | 347° |
| 2026-05-08 05:38 | 9.86999 | -84.46654 | 8683 ft | 245 kts | 349° |
| 2026-05-08 05:38 | 9.88664 | -84.46699 | 8338 ft | 241 kts | 21° |
| 2026-05-08 05:39 | 9.90015 | -84.45761 | 8010 ft | 237 kts | 54° |
| 2026-05-08 05:39 | 9.90720 | -84.44265 | 7728 ft | 234 kts | 70° |
| 2026-05-08 05:39 | 9.91267 | -84.42715 | 7469 ft | 233 kts | 70° |
| 2026-05-08 05:39 | 9.91822 | -84.41172 | 7190 ft | 232 kts | 70° |
| 2026-05-08 05:40 | 9.92381 | -84.39643 | 6906 ft | 231 kts | 69° |
| 2026-05-08 05:40 | 9.92943 | -84.38123 | 6670 ft | 229 kts | 69° |
| 2026-05-08 05:40 | 9.93506 | -84.36614 | 6510 ft | 227 kts | 69° |
| 2026-05-08 05:40 | 9.94058 | -84.35139 | 6250 ft | 226 kts | 69° |
| 2026-05-08 05:41 | 9.94615 | -84.33649 | 5977 ft | 225 kts | 69° |
| 2026-05-08 05:41 | 9.95169 | -84.32167 | 5705 ft | 224 kts | 69° |
| 2026-05-08 05:41 | 9.95721 | -84.30690 | 5446 ft | 223 kts | 69° |
| 2026-05-08 05:41 | 9.96271 | -84.29217 | 5199 ft | 222 kts | 69° |
| 2026-05-08 05:42 | 9.96816 | -84.27764 | 5114 ft | 220 kts | 69° |
| 2026-05-08 05:42 | 9.97361 | -84.26312 | 5092 ft | 222 kts | 70° |
| 2026-05-08 05:42 | 9.97909 | -84.24843 | 5104 ft | 221 kts | 70° |
| 2026-05-08 05:42 | 9.98451 | -84.23386 | 5091 ft | 220 kts | 70° |
| 2026-05-08 05:43 | 9.98992 | -84.21931 | 5083 ft | 221 kts | 70° |
| 2026-05-08 05:43 | 9.99517 | -84.20465 | 5077 ft | 221 kts | 71° |
| 2026-05-08 05:43 | 10.00032 | -84.19003 | 5094 ft | 219 kts | 71° |
| 2026-05-08 05:43 | 10.00536 | -84.17544 | 5080 ft | 220 kts | 71° |
| 2026-05-08 05:44 | 10.01038 | -84.16070 | 5084 ft | 222 kts | 71° |
| 2026-05-08 05:44 | 10.01541 | -84.14593 | 5043 ft | 221 kts | 71° |
| 2026-05-08 05:44 | 10.02037 | -84.13147 | 5038 ft | 219 kts | 71° |
| 2026-05-08 05:44 | 10.02540 | -84.11685 | 5018 ft | 220 kts | 71° |
| 2026-05-08 05:45 | 10.02885 | -84.10689 | 5021 ft | 221 kts | 71° |
| 2026-05-08 05:45 | 10.03578 | -84.08754 | 5036 ft | 218 kts | 71° |
| 2026-05-08 05:45 | 10.03905 | -84.07793 | 5202 ft | 202 kts | 72° |
| 2026-05-08 05:45 | 10.04505 | -84.05882 | 5422 ft | 222 kts | 71° |
| 2026-05-08 05:46 | 10.04816 | -84.04972 | 6047 ft | 164 kts | 69° |
| 2026-05-08 05:46 | 10.05230 | -84.04035 | 7433 ft | 140 kts | 63° |
| 2026-05-08 05:46 | 10.05821 | -84.03009 | 7170 ft | 201 kts | 57° |
| 2026-05-08 05:46 | 10.06707 | -84.01781 | 6637 ft | 227 kts | 51° |
| 2026-05-08 05:47 | 10.07784 | -84.00557 | 6130 ft | 237 kts | 47° |
| 2026-05-08 05:47 | 10.09008 | -83.99392 | 5645 ft | 246 kts | 42° |
| 2026-05-08 05:47 | 10.10364 | -83.98309 | 5187 ft | 252 kts | 37° |
| 2026-05-08 05:47 | 10.11859 | -83.97313 | 4793 ft | 261 kts | 32° |
| 2026-05-08 05:48 | 10.13438 | -83.96441 | 4508 ft | 263 kts | 27° |
| 2026-05-08 05:48 | 10.15140 | -83.95675 | 4009 ft | 265 kts | 22° |
| 2026-05-08 05:48 | 10.16874 | -83.95064 | 3563 ft | 269 kts | 19° |
| 2026-05-08 05:48 | 10.18691 | -83.94586 | 3197 ft | 271 kts | 15° |
| 2026-05-08 05:49 | 10.20551 | -83.94254 | 2818 ft | 272 kts | 10° |
| 2026-05-08 05:49 | 10.22440 | -83.94072 | 2404 ft | 273 kts | 5° |
| 2026-05-08 05:49 | 10.24347 | -83.94043 | 2060 ft | 274 kts | 1° |
| 2026-05-08 05:49 | 10.26255 | -83.94168 | 1754 ft | 274 kts | 356° |
| 2026-05-08 05:50 | 10.28147 | -83.94445 | 1417 ft | 274 kts | 351° |
| 2026-05-08 05:50 | 10.30009 | -83.94870 | 1076 ft | 274 kts | 346° |
| 2026-05-08 05:50 | 10.31830 | -83.95439 | 741 ft | 274 kts | 340° |
| 2026-05-08 05:50 | 10.33596 | -83.96152 | 400 ft | 273 kts | 336° |
| 2026-05-08 05:51 | 10.35208 | -83.96976 | 804 ft | 231 kts | 331° |
| 2026-05-08 05:51 | 10.36535 | -83.97739 | 2416 ft | 208 kts | 333° |
| 2026-05-08 05:51 | 10.37742 | -83.98446 | 3629 ft | 193 kts | 333° |
| 2026-05-08 05:51 | 10.38871 | -83.99115 | 4666 ft | 183 kts | 333° |
| 2026-05-08 05:52 | 10.39948 | -83.99759 | 5524 ft | 178 kts | 333° |
| 2026-05-08 05:52 | 10.41043 | -84.00414 | 6160 ft | 189 kts | 333° |
| 2026-05-08 05:52 | 10.42203 | -84.01105 | 6767 ft | 197 kts | 333° |
| 2026-05-08 05:52 | 10.43405 | -84.01819 | 7465 ft | 202 kts | 333° |
| 2026-05-08 05:53 | 10.44608 | -84.02534 | 8206 ft | 203 kts | 332° |